Pagina principale
METAR-TAF:

METAR-TAF

Aeroporti :

Aeroporto di Podgorica

Podgorica, Montenegro

latitudine: 42-26N, longitudine: 019-17E, altezza: 53 m

Osservazione

Il bollettino è stato emesso 15 minuti fa, alle 02:30 UTC
Vento 5 kt da nord
Temperature 13°C
Umidità 72%
Pressione 1015 hPa
Visibilità 10 km o più
nessuna nube inferiore a 1500 m e nessun cumulonembo

METAR: LYPG 190230Z 36005KT CAVOK 13/08 Q1015 NOSIG

Ora: 04:45 (02:45 UTC)

Previsione

Il bollettino è stato emesso 3 ore e 45 minuti fa, alle 23:00 UTC
Previsione valida dal 19 alle 00 UTC al 19 alle 24 UTC
Vento 5 kt da nord
Visibilità 10 km o più
nessuna nube inferiore a 1500 m e nessun cumulonembo

TAF: LYPG 182300Z 1900/1924 36005KT CAVOK TX27/1913Z TN11/1905Z

Osservazioni e previsioni meteorologiche di più di 4000 aeroporti (messaggi METAR e TAF).

Le stazioni disponibili sono rappresentate dai dischi gialli e rossi sulla carta.

Puntare il mouse per vedere il nome della stazione.

Clicca sopra per visualizzare le osservazioni e previsioni meteorologiche.

Per cambiare la mappa : fare clic sui pulsanti verdi con una croce nera per ingrandire, il pulsante verde con un trattino per diminuire, o sulla freccia verde per le mappe adiacenti.


METAR-TAF: